createdAt,value
2022-10-18T00:02:13.760Z,2.25
2022-10-18T00:04:40.503Z,1.73
2022-10-18T00:07:07.082Z,2.08
2022-10-18T00:09:33.800Z,2.80
2022-10-18T00:12:00.830Z,2.33
2022-10-18T00:14:27.306Z,1.85
2022-10-18T00:16:53.739Z,2.63
2022-10-18T00:19:20.267Z,2.28
2022-10-18T00:21:46.732Z,2.00
2022-10-18T00:24:13.239Z,1.73
2022-10-18T00:26:39.723Z,1.50
2022-10-18T00:29:06.801Z,2.10
2022-10-18T00:31:34.768Z,3.08
2022-10-18T00:34:05.537Z,1.63
2022-10-18T00:36:34.622Z,1.77
2022-10-18T00:39:02.747Z,1.95
2022-10-18T00:41:31.453Z,1.98
2022-10-18T00:44:07.133Z,2.72
2022-10-18T00:46:36.168Z,1.80
2022-10-18T00:49:09.416Z,1.63
2022-10-18T00:52:00.926Z,1.98
2022-10-18T00:54:29.906Z,2.35
2022-10-18T00:56:56.710Z,1.95
2022-10-18T00:59:24.377Z,1.98
2022-10-18T01:01:50.970Z,1.90
2022-10-18T01:04:19.105Z,2.38
2022-10-18T01:09:39.267Z,2.65
2022-10-18T01:12:14.615Z,3.67
2022-10-18T01:14:59.902Z,1.80
2022-10-18T01:17:41.289Z,1.92
2022-10-18T01:20:16.643Z,1.65
2022-10-18T01:26:37.067Z,1.52
2022-10-18T01:29:44.696Z,2.25
2022-10-18T01:32:24.429Z,1.52
2022-10-18T01:34:57.448Z,2.58
2022-10-18T01:37:25.280Z,1.55
2022-10-18T01:39:56.471Z,2.63
2022-10-18T01:42:23.392Z,2.30
2022-10-18T01:44:52.304Z,1.98
2022-10-18T01:47:20.204Z,2.00
2022-10-18T01:49:46.766Z,1.85
2022-10-18T01:52:15.116Z,2.72
2022-10-18T01:54:48.447Z,1.67
2022-10-18T01:57:29.550Z,1.40
2022-10-18T02:00:13.752Z,2.58
2022-10-18T02:03:22.309Z,2.05
2022-10-18T02:05:56.398Z,1.67
2022-10-18T02:08:38.056Z,2.38
2022-10-18T02:11:05.954Z,2.08
2022-10-18T02:13:38.845Z,2.95
2022-10-18T02:16:10.952Z,3.08
2022-10-18T02:18:42.288Z,1.60
2022-10-18T02:21:14.290Z,2.35
2022-10-18T02:23:40.861Z,1.60
2022-10-18T02:26:07.478Z,1.80
2022-10-18T02:28:34.446Z,1.70
2022-10-18T02:31:18.292Z,2.00
2022-10-18T02:33:55.762Z,1.70
2022-10-18T02:36:43.034Z,2.33
2022-10-18T02:39:16.825Z,1.90
2022-10-18T02:41:43.781Z,1.40
2022-10-18T02:44:11.218Z,1.60
2022-10-18T02:46:38.508Z,2.58
2022-10-18T02:49:04.978Z,1.77
2022-10-18T02:51:31.960Z,2.45
2022-10-18T02:53:58.479Z,1.95
2022-10-18T02:56:25.144Z,1.75
2022-10-18T02:58:51.786Z,2.42
2022-10-18T03:01:18.331Z,1.63
2022-10-18T03:03:44.842Z,1.52
2022-10-18T03:06:11.283Z,2.58
2022-10-18T03:08:38.186Z,1.50
2022-10-18T03:11:04.781Z,2.05
2022-10-18T03:13:31.236Z,1.67
2022-10-18T03:15:57.786Z,5.75
2022-10-18T03:18:24.226Z,2.50
2022-10-18T03:20:50.752Z,2.85
2022-10-18T03:23:17.247Z,2.00
2022-10-18T03:25:45.723Z,2.83
2022-10-18T03:28:13.134Z,1.58
2022-10-18T03:30:39.568Z,2.50
2022-10-18T03:33:06.514Z,2.53
2022-10-18T03:35:33.177Z,3.38
2022-10-18T03:37:59.718Z,2.67
2022-10-18T03:40:26.449Z,1.77
2022-10-18T03:42:52.943Z,1.70
2022-10-18T03:45:19.424Z,2.42
2022-10-18T03:47:46.104Z,2.83
2022-10-18T03:50:12.607Z,2.30
2022-10-18T03:52:39.119Z,1.98
2022-10-18T03:55:06.191Z,1.52
2022-10-18T03:57:32.817Z,2.20
2022-10-18T03:59:59.335Z,2.38
2022-10-18T04:02:26.146Z,1.95
2022-10-18T04:04:52.657Z,1.98
2022-10-18T04:07:19.366Z,1.85
2022-10-18T04:09:45.832Z,1.70
2022-10-18T04:12:12.268Z,1.75
2022-10-18T04:14:38.732Z,3.47
2022-10-18T04:17:05.269Z,2.58
2022-10-18T04:19:31.830Z,1.60
2022-10-18T04:21:58.493Z,3.05
2022-10-18T04:24:25.008Z,2.60
2022-10-18T04:26:51.583Z,2.35
2022-10-18T04:29:18.206Z,1.77
2022-10-18T04:31:44.779Z,1.88
2022-10-18T04:34:11.326Z,1.83
2022-10-18T04:36:37.878Z,1.65
2022-10-18T04:39:04.497Z,2.40
2022-10-18T04:41:30.998Z,1.73
2022-10-18T04:43:57.426Z,2.17
2022-10-18T04:46:24.166Z,2.13
2022-10-18T04:48:50.665Z,2.22
2022-10-18T04:51:17.239Z,1.85
2022-10-18T04:53:43.693Z,2.60
2022-10-18T04:56:10.224Z,2.08
2022-10-18T04:58:36.676Z,2.28
2022-10-18T05:01:07.457Z,1.70
2022-10-18T05:03:34.726Z,2.03
2022-10-18T05:06:02.734Z,2.67
2022-10-18T05:08:30.973Z,2.72
2022-10-18T05:10:57.803Z,2.15
2022-10-18T05:13:24.860Z,1.90
2022-10-18T05:15:51.949Z,2.53
2022-10-18T05:18:18.502Z,2.13
2022-10-18T05:20:44.948Z,2.08
2022-10-18T05:23:11.427Z,2.70
2022-10-18T05:25:39.587Z,1.60
2022-10-18T05:28:10.813Z,2.58
2022-10-18T05:30:47.875Z,1.80
2022-10-18T05:33:14.469Z,2.10
2022-10-18T05:35:40.998Z,2.75
2022-10-18T05:38:08.268Z,3.25
2022-10-18T05:40:34.766Z,2.22
2022-10-18T05:43:01.257Z,1.70
2022-10-18T05:45:27.716Z,2.83
2022-10-18T05:47:54.824Z,1.88
2022-10-18T05:50:21.290Z,2.30
2022-10-18T05:52:47.835Z,1.83
2022-10-18T05:55:14.476Z,3.08
2022-10-18T05:57:41.099Z,2.08
2022-10-18T06:00:08.209Z,2.38
2022-10-18T06:02:34.687Z,2.58
2022-10-18T06:05:01.187Z,2.38
2022-10-18T06:07:27.632Z,2.00
2022-10-18T06:09:54.217Z,2.00
2022-10-18T06:12:20.828Z,2.15
2022-10-18T06:14:49.311Z,1.95
2022-10-18T06:17:15.754Z,2.40
2022-10-18T06:19:44.326Z,1.85
2022-10-18T06:22:11.662Z,1.92
2022-10-18T06:24:38.265Z,1.80
2022-10-18T06:27:08.902Z,2.08
2022-10-18T06:29:36.382Z,2.13
2022-10-18T06:32:04.019Z,2.50
2022-10-18T06:34:30.839Z,2.53
2022-10-18T06:36:58.832Z,2.50
2022-10-18T06:39:25.896Z,3.03
2022-10-18T06:41:53.174Z,2.20
2022-10-18T06:44:20.585Z,3.13
2022-10-18T06:46:48.787Z,3.17
2022-10-18T06:49:18.997Z,2.00
2022-10-18T06:51:46.221Z,3.05
2022-10-18T06:54:18.178Z,2.28
2022-10-18T06:56:45.176Z,2.42
2022-10-18T06:59:11.654Z,2.40
2022-10-18T07:01:38.308Z,3.70
2022-10-18T07:04:04.974Z,3.95
2022-10-18T07:06:31.493Z,7.32
2022-10-18T07:08:58.001Z,4.90
2022-10-18T07:11:26.831Z,5.90
2022-10-18T07:13:54.931Z,6.60
2022-10-18T07:16:21.874Z,5.72
2022-10-18T07:18:50.690Z,6.28
2022-10-18T07:21:19.562Z,9.07
2022-10-18T07:23:46.974Z,7.00
2022-10-18T07:26:25.609Z,4.80
2022-10-18T07:28:58.115Z,6.13
2022-10-18T07:31:25.551Z,7.38
2022-10-18T07:33:52.644Z,4.55
2022-10-18T07:36:21.097Z,3.70
2022-10-18T07:38:48.277Z,5.05
2022-10-18T07:41:14.964Z,6.18
2022-10-18T07:43:45.996Z,3.22
2022-10-18T07:46:13.828Z,4.53
2022-10-18T07:48:40.790Z,4.70
2022-10-18T07:51:07.541Z,4.97
2022-10-18T07:53:34.640Z,4.65
2022-10-18T07:56:05.865Z,5.13
2022-10-18T07:58:35.309Z,3.72
2022-10-18T08:01:06.711Z,3.00
2022-10-18T08:03:33.658Z,4.07
2022-10-18T08:06:00.223Z,3.42
2022-10-18T08:08:28.061Z,2.83
2022-10-18T08:10:55.033Z,3.40
2022-10-18T08:13:21.500Z,5.47
2022-10-18T08:15:48.340Z,3.55
2022-10-18T08:18:15.128Z,4.00
2022-10-18T08:20:44.728Z,2.22
2022-10-18T08:23:11.723Z,2.83
2022-10-18T08:25:38.356Z,4.47
2022-10-18T08:28:05.163Z,2.60
2022-10-18T08:30:31.658Z,2.65
2022-10-18T08:32:58.158Z,2.85
2022-10-18T08:35:24.795Z,3.83
2022-10-18T08:37:51.315Z,3.35
2022-10-18T08:40:17.830Z,2.30
2022-10-18T08:42:54.711Z,2.97
2022-10-18T08:45:37.505Z,3.72
2022-10-18T08:48:16.137Z,3.50
2022-10-18T08:50:43.140Z,2.83
2022-10-18T08:53:12.468Z,2.70
2022-10-18T08:55:42.130Z,3.22
2022-10-18T08:58:23.883Z,2.97
2022-10-18T09:01:32.114Z,2.75
2022-10-18T09:04:13.901Z,2.10
2022-10-18T09:07:17.959Z,2.88
2022-10-18T09:10:14.517Z,2.75
2022-10-18T09:12:56.285Z,3.17
2022-10-18T09:15:42.093Z,3.13
2022-10-18T09:18:32.987Z,3.85
2022-10-18T09:21:03.293Z,2.55
2022-10-18T09:23:47.908Z,3.00
2022-10-18T09:26:20.419Z,7.78
2022-10-18T09:29:14.021Z,4.45
2022-10-18T09:31:52.243Z,3.85
2022-10-18T09:34:27.386Z,5.20
2022-10-18T09:36:54.759Z,8.85
2022-10-18T09:39:35.478Z,12.02
2022-10-18T09:42:28.642Z,13.95
2022-10-18T09:45:17.629Z,12.55
2022-10-18T09:47:51.337Z,15.00
2022-10-18T09:50:27.840Z,13.55
2022-10-18T09:57:03.433Z,14.40
2022-10-18T09:59:50.322Z,11.57
2022-10-18T10:02:21.176Z,12.02
2022-10-18T10:04:48.599Z,12.05
2022-10-18T10:07:24.823Z,11.82
2022-10-18T10:10:07.160Z,7.55
2022-10-18T10:12:36.156Z,7.85
2022-10-18T10:15:12.521Z,7.50
2022-10-18T10:17:39.061Z,8.18
2022-10-18T10:20:22.886Z,7.50
2022-10-18T10:22:51.701Z,8.45
2022-10-18T10:25:33.240Z,8.27
2022-10-18T10:28:16.739Z,6.05
2022-10-18T10:30:43.262Z,6.57
2022-10-18T10:33:37.157Z,7.93
2022-10-18T10:36:15.563Z,6.90
2022-10-18T10:38:42.135Z,7.03
2022-10-18T10:41:20.687Z,5.47
2022-10-18T10:43:48.437Z,7.07
2022-10-18T10:46:20.228Z,4.88
2022-10-18T10:49:08.443Z,5.45
2022-10-18T10:51:41.229Z,5.28
2022-10-18T10:54:15.773Z,4.85
2022-10-18T10:57:03.296Z,3.42
2022-10-18T10:59:44.715Z,5.07
2022-10-18T11:02:14.428Z,4.63
2022-10-18T11:04:42.033Z,3.75
2022-10-18T11:07:20.674Z,5.95
2022-10-18T11:10:07.747Z,4.20
2022-10-18T11:12:45.250Z,5.55
2022-10-18T11:15:12.130Z,3.08
2022-10-18T11:17:44.672Z,3.58
2022-10-18T11:20:18.503Z,2.28
2022-10-18T11:22:51.058Z,2.03
2022-10-18T11:25:18.179Z,2.00
2022-10-18T11:28:11.080Z,3.30
2022-10-18T11:30:58.836Z,4.40
2022-10-18T11:34:07.200Z,2.88
2022-10-18T11:36:46.278Z,2.22
2022-10-18T11:39:44.267Z,2.67
2022-10-18T11:42:37.823Z,3.60
2022-10-18T11:45:09.141Z,2.55
2022-10-18T11:51:34.087Z,1.88
2022-10-18T11:57:33.531Z,2.17
2022-10-18T12:00:19.143Z,2.90
2022-10-18T12:02:51.515Z,2.03
2022-10-18T12:05:24.206Z,1.67
2022-10-18T12:08:01.194Z,1.75
2022-10-18T12:10:44.328Z,2.35
2022-10-18T12:19:27.238Z,1.98
2022-10-18T12:21:57.189Z,2.75
2022-10-18T12:24:28.944Z,2.10
2022-10-18T12:26:59.892Z,1.65
2022-10-18T12:29:46.642Z,2.03
2022-10-18T12:32:21.362Z,3.57
2022-10-18T12:34:57.602Z,1.67
2022-10-18T12:37:55.013Z,2.00
2022-10-18T12:40:31.949Z,1.63
2022-10-18T12:42:58.448Z,1.55
2022-10-18T12:45:34.872Z,2.22
2022-10-18T12:48:08.696Z,2.30
2022-10-18T12:50:44.432Z,3.00
2022-10-18T12:53:13.611Z,2.85
2022-10-18T12:58:16.080Z,4.15
2022-10-18T13:00:42.563Z,2.28
2022-10-18T13:03:18.157Z,1.60
2022-10-18T13:05:56.050Z,1.55
2022-10-18T13:08:33.880Z,3.63
2022-10-18T13:11:12.354Z,2.70
2022-10-18T13:13:57.112Z,1.35
2022-10-18T13:16:35.684Z,1.48
2022-10-18T13:19:23.878Z,2.53
2022-10-18T13:21:59.580Z,3.30
2022-10-18T13:24:54.340Z,1.80
2022-10-18T13:27:36.533Z,1.98
2022-10-18T13:30:18.352Z,1.70
2022-10-18T13:32:53.992Z,1.67
2022-10-18T13:35:50.752Z,1.98
2022-10-18T13:38:40.531Z,2.00
2022-10-18T13:44:25.761Z,1.40
2022-10-18T13:46:52.295Z,1.80
2022-10-18T13:49:33.916Z,1.55
2022-10-18T13:52:31.616Z,1.75
2022-10-18T13:55:16.544Z,3.33
2022-10-18T13:58:01.788Z,2.05
2022-10-18T14:00:48.148Z,1.88
2022-10-18T14:03:51.884Z,1.70
2022-10-18T14:06:26.866Z,1.23
2022-10-18T14:09:06.199Z,1.92
2022-10-18T14:11:46.256Z,2.75
2022-10-18T14:14:23.063Z,1.45
2022-10-18T14:17:17.670Z,1.30
2022-10-18T14:19:59.803Z,1.65
2022-10-18T14:22:48.184Z,1.25
2022-10-18T14:25:33.560Z,1.85
2022-10-18T14:28:17.532Z,0.80
2022-10-18T14:33:59.006Z,1.73
2022-10-18T14:36:29.479Z,2.08
2022-10-18T14:41:32.917Z,1.45
2022-10-18T14:44:14.309Z,2.60
2022-10-18T14:46:44.003Z,1.80
2022-10-18T14:49:12.669Z,0.68
2022-10-18T14:51:41.873Z,0.93
2022-10-18T14:56:46.576Z,1.23
2022-10-18T14:59:26.652Z,2.05
2022-10-18T15:01:56.161Z,1.83
2022-10-18T15:04:27.781Z,0.70
2022-10-18T15:06:55.835Z,0.90
2022-10-18T15:09:24.203Z,2.45
2022-10-18T15:11:51.829Z,2.25
2022-10-18T15:14:20.334Z,2.15
2022-10-18T15:16:50.565Z,6.20
2022-10-18T15:19:16.962Z,1.70
2022-10-18T15:21:59.185Z,1.23
2022-10-18T15:24:39.091Z,1.55
2022-10-18T15:27:20.558Z,1.48
2022-10-18T15:29:47.381Z,1.67
2022-10-18T15:32:24.527Z,2.08
2022-10-18T15:34:51.458Z,0.90
2022-10-18T15:37:30.210Z,2.33
2022-10-18T15:40:21.390Z,1.65
2022-10-18T15:42:53.412Z,1.63
2022-10-18T15:45:25.822Z,5.15
2022-10-18T15:48:09.352Z,2.55
2022-10-18T15:50:58.745Z,2.05
2022-10-18T15:53:33.112Z,1.08
2022-10-18T15:56:13.625Z,2.60
2022-10-18T15:58:48.857Z,2.15
2022-10-18T16:01:16.967Z,1.30
2022-10-18T16:03:45.311Z,2.60
2022-10-18T16:06:18.034Z,1.48
2022-10-18T16:08:50.891Z,1.75
2022-10-18T16:11:20.613Z,2.53
2022-10-18T16:13:47.395Z,1.95
2022-10-18T16:16:20.519Z,1.52
2022-10-18T16:18:47.593Z,0.88
2022-10-18T16:21:18.102Z,2.15
2022-10-18T16:23:44.840Z,1.85
2022-10-18T16:26:12.890Z,1.63
2022-10-18T16:28:39.669Z,1.90
2022-10-18T16:31:06.569Z,1.90
2022-10-18T16:33:33.294Z,1.40
2022-10-18T16:35:59.791Z,1.23
2022-10-18T16:38:34.147Z,1.40
2022-10-18T16:41:04.052Z,3.70
2022-10-18T16:43:31.302Z,2.00
2022-10-18T16:45:57.889Z,2.08
2022-10-18T16:48:25.407Z,3.38
2022-10-18T16:50:54.725Z,4.03
2022-10-18T16:53:23.834Z,2.78
2022-10-18T16:55:58.417Z,2.65
2022-10-18T16:58:25.983Z,2.72
2022-10-18T17:00:52.743Z,4.45
2022-10-18T17:03:20.181Z,3.53
2022-10-18T17:05:46.690Z,2.92
2022-10-18T17:08:25.060Z,2.78
2022-10-18T17:10:53.279Z,2.72
2022-10-18T17:13:21.555Z,3.70
2022-10-18T17:15:48.792Z,3.30
2022-10-18T17:18:21.916Z,2.20
2022-10-18T17:20:49.348Z,2.85
2022-10-18T17:23:16.304Z,2.08
2022-10-18T17:25:57.756Z,2.42
2022-10-18T17:28:31.870Z,2.00
2022-10-18T17:30:58.491Z,2.00
2022-10-18T17:33:24.959Z,1.55
2022-10-18T17:35:51.417Z,2.33
2022-10-18T17:38:18.053Z,2.60
2022-10-18T17:40:44.538Z,2.85
2022-10-18T17:43:13.270Z,2.75
2022-10-18T17:45:48.166Z,1.27
2022-10-18T17:48:14.675Z,2.30
2022-10-18T17:50:41.700Z,1.58
2022-10-18T17:53:08.230Z,3.03
2022-10-18T17:55:35.041Z,2.30
2022-10-18T17:58:01.654Z,3.03
2022-10-18T18:00:28.582Z,2.45
2022-10-18T18:02:59.432Z,1.98
2022-10-18T18:05:29.692Z,1.30
2022-10-18T18:07:58.688Z,1.50
2022-10-18T18:10:29.640Z,1.30
2022-10-18T18:12:56.118Z,1.48
2022-10-18T18:15:22.593Z,1.30
2022-10-18T18:17:57.362Z,1.75
2022-10-18T18:20:25.036Z,2.20
2022-10-18T18:22:51.798Z,2.65
2022-10-18T18:25:18.365Z,1.10
2022-10-18T18:27:44.936Z,1.55
2022-10-18T18:30:11.790Z,1.10
2022-10-18T18:32:38.391Z,1.83
2022-10-18T18:35:05.279Z,1.42
2022-10-18T18:37:31.909Z,2.15
2022-10-18T18:39:58.390Z,1.45
2022-10-18T18:42:25.111Z,2.40
2022-10-18T18:44:51.733Z,2.95
2022-10-18T18:47:21.445Z,1.20
2022-10-18T18:49:48.326Z,0.93
2022-10-18T18:52:14.810Z,1.50
2022-10-18T18:54:41.289Z,1.35
2022-10-18T18:57:07.923Z,1.08
2022-10-18T18:59:34.470Z,1.55
2022-10-18T19:02:01.204Z,1.10
2022-10-18T19:04:29.044Z,1.10
2022-10-18T19:06:55.763Z,1.08
2022-10-18T19:09:22.903Z,1.90
2022-10-18T19:11:52.870Z,2.15
2022-10-18T19:16:53.450Z,1.08
2022-10-18T19:19:24.833Z,1.83
2022-10-18T19:21:54.283Z,3.60
2022-10-18T19:24:23.584Z,2.75
2022-10-18T19:26:55.794Z,3.08
2022-10-18T19:29:28.619Z,1.92
2022-10-18T19:31:58.158Z,1.60
2022-10-18T19:34:26.223Z,2.17
2022-10-18T19:36:53.048Z,1.55
2022-10-18T19:39:22.516Z,0.70
2022-10-18T19:41:51.442Z,2.30
2022-10-18T19:44:19.427Z,4.05
2022-10-18T19:46:46.507Z,2.50
2022-10-18T19:49:13.057Z,1.98
2022-10-18T19:51:39.542Z,1.50
2022-10-18T19:54:06.171Z,1.05
2022-10-18T19:56:32.863Z,1.88
2022-10-18T19:59:00.056Z,2.05
2022-10-18T20:01:28.243Z,2.95
2022-10-18T20:03:55.260Z,2.58
2022-10-18T20:06:22.656Z,1.50
2022-10-18T20:08:49.319Z,1.63
2022-10-18T20:11:21.911Z,1.50
2022-10-18T20:13:48.844Z,1.98
2022-10-18T20:16:17.730Z,1.83
2022-10-18T20:18:44.385Z,2.35
2022-10-18T20:21:13.022Z,2.00
2022-10-18T20:23:41.264Z,2.35
2022-10-18T20:26:10.963Z,2.22
2022-10-18T20:28:38.394Z,4.63
2022-10-18T20:31:17.826Z,2.45
2022-10-18T20:33:48.051Z,2.25
2022-10-18T20:36:16.739Z,2.30
2022-10-18T20:38:45.583Z,1.42
2022-10-18T20:41:13.259Z,2.03
2022-10-18T20:43:40.530Z,5.55
2022-10-18T20:46:08.219Z,2.05
2022-10-18T20:48:35.611Z,2.15
2022-10-18T20:51:07.366Z,3.05
2022-10-18T20:53:37.927Z,2.75
2022-10-18T20:56:08.675Z,2.40
2022-10-18T20:58:36.263Z,2.63
2022-10-18T21:01:23.265Z,3.03
2022-10-18T21:03:51.595Z,2.92
2022-10-18T21:06:24.083Z,4.13
2022-10-18T21:09:00.934Z,3.83
2022-10-18T21:11:29.138Z,2.28
2022-10-18T21:14:02.787Z,4.10
2022-10-18T21:16:31.372Z,2.55
2022-10-18T21:19:10.145Z,3.33
2022-10-18T21:21:36.887Z,2.38
2022-10-18T21:24:06.952Z,3.08
2022-10-18T21:26:34.536Z,2.58
2022-10-18T21:29:01.109Z,2.65
2022-10-18T21:31:30.421Z,2.55
2022-10-18T21:33:59.839Z,2.78
2022-10-18T21:36:29.884Z,2.83
2022-10-18T21:38:56.366Z,2.88
2022-10-18T21:41:23.701Z,2.25
2022-10-18T21:43:52.579Z,1.98
2022-10-18T21:46:20.900Z,3.53
2022-10-18T21:48:50.144Z,2.35
2022-10-18T21:51:19.183Z,3.00
2022-10-18T21:53:47.425Z,2.85
2022-10-18T21:56:17.002Z,1.80
2022-10-18T21:58:44.094Z,2.53
2022-10-18T22:01:11.931Z,2.55
2022-10-18T22:03:38.700Z,2.42
2022-10-18T22:06:08.844Z,1.98
2022-10-18T22:08:36.086Z,1.83
2022-10-18T22:11:03.217Z,2.08
2022-10-18T22:13:29.778Z,3.63
2022-10-18T22:15:56.456Z,2.03
2022-10-18T22:18:22.919Z,1.30
2022-10-18T22:21:01.494Z,2.67
2022-10-18T22:23:32.952Z,2.88
2022-10-18T22:26:05.127Z,2.38
2022-10-18T22:28:31.670Z,1.83
2022-10-18T22:30:59.068Z,2.88
2022-10-18T22:33:26.011Z,2.13
2022-10-18T22:35:52.510Z,2.30
2022-10-18T22:38:19.119Z,2.22
2022-10-18T22:40:45.604Z,2.08
2022-10-18T22:43:12.068Z,1.85
2022-10-18T22:45:39.631Z,2.85
2022-10-18T22:48:06.561Z,2.15
2022-10-18T22:50:33.000Z,2.88
2022-10-18T22:52:59.462Z,2.55
2022-10-18T22:55:26.069Z,2.08
2022-10-18T22:57:52.643Z,1.98
2022-10-18T23:00:19.124Z,2.33
2022-10-18T23:02:49.020Z,3.03
2022-10-18T23:05:15.717Z,2.05
2022-10-18T23:07:42.212Z,2.35
2022-10-18T23:10:08.907Z,2.13
2022-10-18T23:12:35.677Z,3.15
2022-10-18T23:15:02.362Z,1.98
2022-10-18T23:17:28.906Z,2.08
2022-10-18T23:19:55.370Z,2.53
2022-10-18T23:22:21.815Z,2.20
2022-10-18T23:24:48.301Z,2.40
2022-10-18T23:27:14.773Z,1.85
2022-10-18T23:29:41.226Z,2.35
2022-10-18T23:32:08.914Z,1.20
2022-10-18T23:34:35.375Z,1.42
2022-10-18T23:37:02.107Z,2.13
2022-10-18T23:39:28.614Z,1.88
2022-10-18T23:41:55.073Z,1.40
2022-10-18T23:44:21.560Z,1.40
2022-10-18T23:46:48.142Z,2.15
2022-10-18T23:49:14.753Z,1.83
2022-10-18T23:51:41.218Z,2.20
2022-10-18T23:54:07.877Z,2.55
2022-10-18T23:56:34.325Z,1.92
2022-10-18T23:59:00.756Z,2.28
